• Join FlightAware (Why Join?)
  • Login
  • US Flag 
11:41PM EDT


 

Airport Tracker/Info


-or-


 

Live Flight TrackerFlight Track Log ✈ N474RL ✈ 01-Jul-2014 ✈ KGYH - KSOP

Flight Track Log - Related Links

Times and Time Zones

All times are in EDT time to prevent confusion due to time zone crossing. See the N474RL flight status page for this flight to view local times or setup timezone preferences in your user account.

Time Position Orientation Groundspeed Altitude Reporting Facility
EDT Latitude Longitude Course Direction KTS MPH feet Rate Location/Type
01:26PM 34.7906 -82.1069 78° East  Level FlightAware Approximate
01:27PM 34.7979 -82.0636 78° East  Level FlightAware Approximate
01:28PM 34.8052 -82.0203 78° East  Level FlightAware Approximate
01:29PM 34.8125 -81.9770 78° East  Level FlightAware Approximate
01:30PM 34.8198 -81.9336 78° East  Level FlightAware Approximate
01:31PM 34.8270 -81.8903 78° East  Level FlightAware Approximate
01:32PM 34.8342 -81.8469 78° East  Level FlightAware Approximate
01:33PM 34.8415 -81.8036 79° East  Level FlightAware Approximate
01:33PM 34.7006 -81.5806 79° East 174 200 7,500  Level Atlanta Center
01:34PM 34.8487 -81.7602 79° East  Level FlightAware Approximate
01:34PM 34.6972 -81.5300 95° East 179 206 7,500  Level Atlanta Center
01:35PM 34.8559 -81.7168 79° East  Level FlightAware Approximate
01:35PM 34.7025 -81.4717 84° East 171 197 7,500  Level Atlanta Center
01:35PM 34.6931 -81.4189 102° East 177 204 7,500  Level Atlanta Center
01:36PM 34.8630 -81.6735 79° East  Level FlightAware Approximate
01:37PM 34.6814 -81.3639 104° East 172 198 7,500  Level Atlanta Center
01:37PM 34.8702 -81.6301 79° East  Level FlightAware Approximate
01:38PM 34.8773 -81.5867 79° East  Level FlightAware Approximate
01:38PM 34.6778 -81.2931 94° East 180 207 7,500  Level Atlanta Center
01:39PM 34.6517 -81.2461 124° Southeast 180 207 7,500  Level Atlanta Center
01:40PM 34.6336 -81.1911 112° Southeast 177 204 7,500 120 Level Atlanta Center
01:40PM 34.6303 -81.1383 94° East 171 197 7,800 420 Climbing Atlanta Center
01:42PM 34.6478 -81.0872 67° East 141 162 8,400 420 Climbing Atlanta Center
01:43PM 34.6633 -81.0411 68° East 141 162 8,800 240 Climbing Atlanta Center
01:44PM 34.6811 -81.0000 62° Northeast 146 168 9,000 60 Climbing Atlanta Center
01:45PM 34.6967 -80.9514 69° East 162 186 9,000  Level Atlanta Center
01:45PM 34.7142 -80.9003 67° East 171 197 9,000  Level Atlanta Center
01:46PM 34.7336 -80.8467 66° East 173 199 9,000  Level Atlanta Center
01:47PM 34.7511 -80.7978 66° East 169 194 9,000  Level Atlanta Center
01:53PM 34.8550 -80.4995 65° Northeast 173 199 9,000  Level FlightAware ADS-B (KCDN)
01:54PM 34.8653 -80.4694 65° Northeast 173 199 9,000  Level Atlanta Center
01:55PM 34.8883 -80.4100 65° Northeast 171 197 9,000  Level Atlanta Center
01:56PM 34.9056 -80.3561 69° East 171 197 9,000  Level Atlanta Center
02:02PM 35.0133 -80.0375 70° East 173 199 9,000 -120 Level Washington Center
02:04PM 35.0339 -79.9612 61° Northeast  Level FlightAware Approximate
02:05PM 35.0538 -79.9166 61° Northeast  Level FlightAware Approximate
02:05PM 35.0806 -79.8558 61° Northeast 194 223 8,000  Level Washington Center
02:08PM 35.1481 -79.6564 59° Northeast 207 238 5,600 -780 Descending Washington Center
02:14PM 35.2159 -79.4182 59° Northeast  Level FlightAware Approximate